sensor_id;sensor_type;location;lat;lon;timestamp;temperature;humidity
3017;DHT22;1518;52.408;13.060;2023-03-01T00:00:45;17.70;52.10
3017;DHT22;1518;52.408;13.060;2023-03-01T00:03:34;17.90;52.10
3017;DHT22;1518;52.408;13.060;2023-03-01T00:06:22;17.90;50.60
3017;DHT22;1518;52.408;13.060;2023-03-01T00:09:12;18.00;64.20
3017;DHT22;1518;52.408;13.060;2023-03-01T00:12:00;17.90;50.20
3017;DHT22;1518;52.408;13.060;2023-03-01T00:14:48;17.80;50.20
3017;DHT22;1518;52.408;13.060;2023-03-01T00:17:37;17.80;50.40
3017;DHT22;1518;52.408;13.060;2023-03-01T00:20:25;17.80;50.30
3017;DHT22;1518;52.408;13.060;2023-03-01T00:23:13;17.70;50.50
3017;DHT22;1518;52.408;13.060;2023-03-01T00:26:04;17.70;50.60
3017;DHT22;1518;52.408;13.060;2023-03-01T00:28:53;17.60;50.50
3017;DHT22;1518;52.408;13.060;2023-03-01T00:31:42;17.60;50.70
3017;DHT22;1518;52.408;13.060;2023-03-01T00:34:30;17.60;50.70
3017;DHT22;1518;52.408;13.060;2023-03-01T00:37:18;17.50;50.60
3017;DHT22;1518;52.408;13.060;2023-03-01T00:40:07;17.50;50.70
3017;DHT22;1518;52.408;13.060;2023-03-01T00:42:58;17.50;50.60
3017;DHT22;1518;52.408;13.060;2023-03-01T00:45:46;17.40;50.80
3017;DHT22;1518;52.408;13.060;2023-03-01T00:48:35;17.40;51.10
3017;DHT22;1518;52.408;13.060;2023-03-01T00:51:25;17.30;51.10
3017;DHT22;1518;52.408;13.060;2023-03-01T00:54:13;17.50;51.20
3017;DHT22;1518;52.408;13.060;2023-03-01T00:57:01;17.30;50.70
3017;DHT22;1518;52.408;13.060;2023-03-01T00:59:51;17.40;51.60
3017;DHT22;1518;52.408;13.060;2023-03-01T01:02:39;17.30;52.50
3017;DHT22;1518;52.408;13.060;2023-03-01T01:05:28;17.40;52.50
3017;DHT22;1518;52.408;13.060;2023-03-01T01:08:16;17.50;52.20
3017;DHT22;1518;52.408;13.060;2023-03-01T01:11:04;17.60;52.10
3017;DHT22;1518;52.408;13.060;2023-03-01T01:13:52;17.70;50.90
3017;DHT22;1518;52.408;13.060;2023-03-01T01:16:42;17.80;50.40
3017;DHT22;1518;52.408;13.060;2023-03-01T01:19:31;17.80;50.10
3017;DHT22;1518;52.408;13.060;2023-03-01T01:22:19;17.70;50.20
3017;DHT22;1518;52.408;13.060;2023-03-01T01:25:08;17.70;50.20
3017;DHT22;1518;52.408;13.060;2023-03-01T01:27:56;17.70;50.20
3017;DHT22;1518;52.408;13.060;2023-03-01T01:30:44;17.60;50.10
3017;DHT22;1518;52.408;13.060;2023-03-01T01:33:35;17.50;50.70
3017;DHT22;1518;52.408;13.060;2023-03-01T01:36:24;17.40;50.40
3017;DHT22;1518;52.408;13.060;2023-03-01T01:39:12;17.30;64.60
3017;DHT22;1518;52.408;13.060;2023-03-01T01:42:01;17.40;50.70
3017;DHT22;1518;52.408;13.060;2023-03-01T01:45:24;17.30;50.70
3017;DHT22;1518;52.408;13.060;2023-03-01T01:48:16;17.30;50.90
3017;DHT22;1518;52.408;13.060;2023-03-01T01:51:08;17.20;50.70
3017;DHT22;1518;52.408;13.060;2023-03-01T01:53:59;17.20;50.60
3017;DHT22;1518;52.408;13.060;2023-03-01T01:56:52;17.20;51.20
3017;DHT22;1518;52.408;13.060;2023-03-01T01:59:45;17.10;50.90
3017;DHT22;1518;52.408;13.060;2023-03-01T02:02:36;17.10;50.80
3017;DHT22;1518;52.408;13.060;2023-03-01T02:05:29;17.20;51.60
3017;DHT22;1518;52.408;13.060;2023-03-01T02:08:25;17.30;52.30
3017;DHT22;1518;52.408;13.060;2023-03-01T02:11:14;17.40;52.80
3017;DHT22;1518;52.408;13.060;2023-03-01T02:14:02;17.50;52.00
3017;DHT22;1518;52.408;13.060;2023-03-01T02:16:51;17.60;51.60
3017;DHT22;1518;52.408;13.060;2023-03-01T02:19:47;17.70;51.10
3017;DHT22;1518;52.408;13.060;2023-03-01T02:22:38;17.70;50.60
3017;DHT22;1518;52.408;13.060;2023-03-01T02:25:32;17.70;50.40
3017;DHT22;1518;52.408;13.060;2023-03-01T02:28:31;17.70;50.10
3017;DHT22;1518;52.408;13.060;2023-03-01T02:31:20;17.60;50.30
3017;DHT22;1518;52.408;13.060;2023-03-01T02:34:27;17.50;50.30
3017;DHT22;1518;52.408;13.060;2023-03-01T02:37:16;17.50;50.40
3017;DHT22;1518;52.408;13.060;2023-03-01T02:40:16;17.40;50.70
3017;DHT22;1518;52.408;13.060;2023-03-01T02:43:08;17.30;50.50
3017;DHT22;1518;52.408;13.060;2023-03-01T02:46:05;17.30;50.40
3017;DHT22;1518;52.408;13.060;2023-03-01T02:48:55;17.30;50.50
3017;DHT22;1518;52.408;13.060;2023-03-01T02:51:52;17.20;50.70
3017;DHT22;1518;52.408;13.060;2023-03-01T02:54:46;17.10;50.60
3017;DHT22;1518;52.408;13.060;2023-03-01T02:57:39;17.10;50.90
3017;DHT22;1518;52.408;13.060;2023-03-01T03:00:33;17.10;50.80
3017;DHT22;1518;52.408;13.060;2023-03-01T03:03:24;17.10;50.70
3017;DHT22;1518;52.408;13.060;2023-03-01T03:06:12;17.00;50.80
3017;DHT22;1518;52.408;13.060;2023-03-01T03:09:01;17.00;50.70
3017;DHT22;1518;52.408;13.060;2023-03-01T03:11:49;17.10;52.30
3017;DHT22;1518;52.408;13.060;2023-03-01T03:14:37;17.30;52.70
3017;DHT22;1518;52.408;13.060;2023-03-01T03:17:25;17.50;53.00
3017;DHT22;1518;52.408;13.060;2023-03-01T03:20:16;17.50;52.70
3017;DHT22;1518;52.408;13.060;2023-03-01T03:23:06;17.60;52.00
3017;DHT22;1518;52.408;13.060;2023-03-01T03:25:54;17.70;51.40
3017;DHT22;1518;52.408;13.060;2023-03-01T03:28:42;17.70;50.80
3017;DHT22;1518;52.408;13.060;2023-03-01T03:31:30;17.80;50.30
3017;DHT22;1518;52.408;13.060;2023-03-01T03:34:18;17.80;50.00
3017;DHT22;1518;52.408;13.060;2023-03-01T03:37:08;17.80;50.20
3017;DHT22;1518;52.408;13.060;2023-03-01T03:40:16;17.70;49.90
3017;DHT22;1518;52.408;13.060;2023-03-01T03:43:06;17.70;50.60
3017;DHT22;1518;52.408;13.060;2023-03-01T03:45:54;19.20;51.20
3017;DHT22;1518;52.408;13.060;2023-03-01T03:48:44;17.50;50.00
3017;DHT22;1518;52.408;13.060;2023-03-01T03:51:33;17.50;50.20
3017;DHT22;1518;52.408;13.060;2023-03-01T03:54:22;17.40;50.50
3017;DHT22;1518;52.408;13.060;2023-03-01T03:57:10;17.40;50.20
3017;DHT22;1518;52.408;13.060;2023-03-01T03:59:58;17.30;50.20
3017;DHT22;1518;52.408;13.060;2023-03-01T04:02:47;17.20;50.70
3017;DHT22;1518;52.408;13.060;2023-03-01T04:05:36;17.20;50.40
3017;DHT22;1518;52.408;13.060;2023-03-01T04:08:25;17.10;50.40
3017;DHT22;1518;52.408;13.060;2023-03-01T04:11:15;17.10;50.30
3017;DHT22;1518;52.408;13.060;2023-03-01T04:14:15;17.00;50.60
3017;DHT22;1518;52.408;13.060;2023-03-01T04:17:03;17.00;50.30
3017;DHT22;1518;52.408;13.060;2023-03-01T04:19:52;17.00;50.70
3017;DHT22;1518;52.408;13.060;2023-03-01T04:22:40;17.10;51.50
3017;DHT22;1518;52.408;13.060;2023-03-01T04:25:28;17.20;52.10
3017;DHT22;1518;52.408;13.060;2023-03-01T04:28:17;17.30;52.70
3017;DHT22;1518;52.408;13.060;2023-03-01T04:31:07;17.40;52.40
3017;DHT22;1518;52.408;13.060;2023-03-01T04:34:00;17.50;50.80
3017;DHT22;1518;52.408;13.060;2023-03-01T04:36:49;17.60;52.10
3017;DHT22;1518;52.408;13.060;2023-03-01T04:39:37;17.60;51.30
3017;DHT22;1518;52.408;13.060;2023-03-01T04:42:32;17.60;50.00
3017;DHT22;1518;52.408;13.060;2023-03-01T04:45:21;17.70;49.90
3017;DHT22;1518;52.408;13.060;2023-03-01T04:48:09;17.70;49.90
3017;DHT22;1518;52.408;13.060;2023-03-01T04:50:58;17.60;49.70
3017;DHT22;1518;52.408;13.060;2023-03-01T04:53:47;17.60;49.70
3017;DHT22;1518;52.408;13.060;2023-03-01T04:56:35;17.30;69.50
3017;DHT22;1518;52.408;13.060;2023-03-01T04:59:23;17.50;50.00
3017;DHT22;1518;52.408;13.060;2023-03-01T05:02:12;17.40;49.90
3017;DHT22;1518;52.408;13.060;2023-03-01T05:05:00;17.30;49.80
3017;DHT22;1518;52.408;13.060;2023-03-01T05:07:49;17.30;49.90
3017;DHT22;1518;52.408;13.060;2023-03-01T05:10:37;17.30;50.20
3017;DHT22;1518;52.408;13.060;2023-03-01T05:13:25;17.20;50.20
3017;DHT22;1518;52.408;13.060;2023-03-01T05:16:15;17.10;50.40
3017;DHT22;1518;52.408;13.060;2023-03-01T05:19:05;17.10;50.40
3017;DHT22;1518;52.408;13.060;2023-03-01T05:21:58;17.00;50.30
3017;DHT22;1518;52.408;13.060;2023-03-01T05:24:50;17.00;50.50
3017;DHT22;1518;52.408;13.060;2023-03-01T05:27:40;17.00;50.20
3017;DHT22;1518;52.408;13.060;2023-03-01T05:30:28;17.00;50.30
3017;DHT22;1518;52.408;13.060;2023-03-01T05:33:17;17.00;51.90
3017;DHT22;1518;52.408;13.060;2023-03-01T05:36:08;17.10;52.00
3017;DHT22;1518;52.408;13.060;2023-03-01T05:38:56;17.30;52.30
3017;DHT22;1518;52.408;13.060;2023-03-01T05:41:44;17.40;52.10
3017;DHT22;1518;52.408;13.060;2023-03-01T05:44:32;17.40;51.80
3017;DHT22;1518;52.408;13.060;2023-03-01T05:47:21;17.60;51.60
3017;DHT22;1518;52.408;13.060;2023-03-01T05:50:11;17.60;50.50
3017;DHT22;1518;52.408;13.060;2023-03-01T05:53:03;17.70;49.80
3017;DHT22;1518;52.408;13.060;2023-03-01T05:55:52;17.70;49.70
3017;DHT22;1518;52.408;13.060;2023-03-01T05:58:40;17.60;49.80
3017;DHT22;1518;52.408;13.060;2023-03-01T06:01:28;17.60;49.50
3017;DHT22;1518;52.408;13.060;2023-03-01T06:04:16;17.50;49.40
3017;DHT22;1518;52.408;13.060;2023-03-01T06:07:05;17.40;49.70
3017;DHT22;1518;52.408;13.060;2023-03-01T06:09:54;17.40;50.00
3017;DHT22;1518;52.408;13.060;2023-03-01T06:12:43;17.30;49.90
3017;DHT22;1518;52.408;13.060;2023-03-01T06:15:31;17.30;49.70
3017;DHT22;1518;52.408;13.060;2023-03-01T06:18:19;17.20;50.00
3017;DHT22;1518;52.408;13.060;2023-03-01T06:21:08;17.20;50.00
3017;DHT22;1518;52.408;13.060;2023-03-01T06:23:56;17.10;50.00
3017;DHT22;1518;52.408;13.060;2023-03-01T06:26:45;17.10;50.00
3017;DHT22;1518;52.408;13.060;2023-03-01T06:29:33;17.00;50.00
3017;DHT22;1518;52.408;13.060;2023-03-01T06:32:22;17.00;50.10
3017;DHT22;1518;52.408;13.060;2023-03-01T06:35:12;17.00;50.60
3017;DHT22;1518;52.408;13.060;2023-03-01T06:38:01;16.90;50.00
3017;DHT22;1518;52.408;13.060;2023-03-01T06:40:52;16.90;50.60
3017;DHT22;1518;52.408;13.060;2023-03-01T06:43:42;17.00;51.50
3017;DHT22;1518;52.408;13.060;2023-03-01T06:46:30;17.40;71.60
3017;DHT22;1518;52.408;13.060;2023-03-01T06:49:19;17.30;52.40
3017;DHT22;1518;52.408;13.060;2023-03-01T06:52:07;17.50;52.30
3017;DHT22;1518;52.408;13.060;2023-03-01T06:54:56;17.50;51.40
3017;DHT22;1518;52.408;13.060;2023-03-01T06:57:44;17.60;51.60
3017;DHT22;1518;52.408;13.060;2023-03-01T07:00:33;17.70;51.10
3017;DHT22;1518;52.408;13.060;2023-03-01T07:03:21;17.80;50.60
3017;DHT22;1518;52.408;13.060;2023-03-01T07:06:10;17.80;49.70
3017;DHT22;1518;52.408;13.060;2023-03-01T07:08:58;17.90;50.30
3017;DHT22;1518;52.408;13.060;2023-03-01T07:11:47;18.00;50.70
3017;DHT22;1518;52.408;13.060;2023-03-01T07:14:35;17.70;49.80
3017;DHT22;1518;52.408;13.060;2023-03-01T07:17:24;17.70;52.50
3017;DHT22;1518;52.408;13.060;2023-03-01T07:20:13;17.90;52.70
3017;DHT22;1518;52.408;13.060;2023-03-01T07:23:01;18.30;52.80
3017;DHT22;1518;52.408;13.060;2023-03-01T07:25:52;18.30;52.50
3017;DHT22;1518;52.408;13.060;2023-03-01T07:28:40;18.50;52.30
3017;DHT22;1518;52.408;13.060;2023-03-01T07:31:28;18.70;52.20
3017;DHT22;1518;52.408;13.060;2023-03-01T07:34:18;18.60;51.70
3017;DHT22;1518;52.408;13.060;2023-03-01T07:37:06;19.00;51.90
3017;DHT22;1518;52.408;13.060;2023-03-01T07:39:54;19.00;51.70
3017;DHT22;1518;52.408;13.060;2023-03-01T07:42:42;18.90;51.40
3017;DHT22;1518;52.408;13.060;2023-03-01T07:45:30;19.10;51.40
3017;DHT22;1518;52.408;13.060;2023-03-01T07:48:18;19.10;51.30
3017;DHT22;1518;52.408;13.060;2023-03-01T07:51:09;19.70;51.80
3017;DHT22;1518;52.408;13.060;2023-03-01T07:53:57;19.40;51.50
3017;DHT22;1518;52.408;13.060;2023-03-01T07:56:45;19.50;51.50
3017;DHT22;1518;52.408;13.060;2023-03-01T07:59:33;19.50;51.40
3017;DHT22;1518;52.408;13.060;2023-03-01T08:02:22;19.60;51.40
3017;DHT22;1518;52.408;13.060;2023-03-01T08:05:11;19.80;51.40
3017;DHT22;1518;52.408;13.060;2023-03-01T08:08:00;19.80;51.20
3017;DHT22;1518;52.408;13.060;2023-03-01T08:10:48;19.90;51.20
3017;DHT22;1518;52.408;13.060;2023-03-01T08:13:36;20.10;51.30
3017;DHT22;1518;52.408;13.060;2023-03-01T08:16:25;20.20;63.80
3017;DHT22;1518;52.408;13.060;2023-03-01T08:19:13;20.10;50.90
3017;DHT22;1518;52.408;13.060;2023-03-01T08:22:01;20.20;50.90
3017;DHT22;1518;52.408;13.060;2023-03-01T08:24:51;20.20;50.80
3017;DHT22;1518;52.408;13.060;2023-03-01T08:27:39;20.30;51.10
3017;DHT22;1518;52.408;13.060;2023-03-01T08:30:27;20.20;51.00
3017;DHT22;1518;52.408;13.060;2023-03-01T08:33:15;20.00;50.80
3017;DHT22;1518;52.408;13.060;2023-03-01T08:36:04;20.10;51.00
3017;DHT22;1518;52.408;13.060;2023-03-01T08:38:54;20.40;51.30
3017;DHT22;1518;52.408;13.060;2023-03-01T08:41:44;20.40;51.10
3017;DHT22;1518;52.408;13.060;2023-03-01T08:44:34;20.50;51.10
3017;DHT22;1518;52.408;13.060;2023-03-01T08:47:22;20.70;51.50
3017;DHT22;1518;52.408;13.060;2023-03-01T08:50:11;20.60;51.10
3017;DHT22;1518;52.408;13.060;2023-03-01T08:52:59;20.70;51.40
3017;DHT22;1518;52.408;13.060;2023-03-01T08:55:47;20.40;51.20
3017;DHT22;1518;52.408;13.060;2023-03-01T08:58:38;20.70;51.40
3017;DHT22;1518;52.408;13.060;2023-03-01T09:01:26;20.80;51.50
3017;DHT22;1518;52.408;13.060;2023-03-01T09:04:15;20.80;51.50
3017;DHT22;1518;52.408;13.060;2023-03-01T09:07:03;21.10;51.60
3017;DHT22;1518;52.408;13.060;2023-03-01T09:09:51;21.00;51.40
3017;DHT22;1518;52.408;13.060;2023-03-01T09:12:40;21.10;51.30
3017;DHT22;1518;52.408;13.060;2023-03-01T09:15:30;20.80;51.00
3017;DHT22;1518;52.408;13.060;2023-03-01T09:18:19;21.10;51.20
3017;DHT22;1518;52.408;13.060;2023-03-01T09:21:09;21.20;51.30
3017;DHT22;1518;52.408;13.060;2023-03-01T09:23:58;21.20;51.30
3017;DHT22;1518;52.408;13.060;2023-03-01T09:26:46;21.30;51.40
3017;DHT22;1518;52.408;13.060;2023-03-01T09:29:37;21.10;51.00
3017;DHT22;1518;52.408;13.060;2023-03-01T09:32:26;21.30;51.10
3017;DHT22;1518;52.408;13.060;2023-03-01T09:35:15;21.50;51.30
3017;DHT22;1518;52.408;13.060;2023-03-01T09:38:03;21.30;51.20
3017;DHT22;1518;52.408;13.060;2023-03-01T09:40:51;21.30;51.20
3017;DHT22;1518;52.408;13.060;2023-03-01T09:43:43;21.30;51.10
3017;DHT22;1518;52.408;13.060;2023-03-01T09:46:39;21.40;68.30
3017;DHT22;1518;52.408;13.060;2023-03-01T09:49:33;21.30;51.20
3017;DHT22;1518;52.408;13.060;2023-03-01T09:52:28;21.20;51.00
3017;DHT22;1518;52.408;13.060;2023-03-01T09:55:23;21.20;51.30
3017;DHT22;1518;52.408;13.060;2023-03-01T09:58:36;21.20;51.30
3017;DHT22;1518;52.408;13.060;2023-03-01T10:01:29;21.20;51.20
3017;DHT22;1518;52.408;13.060;2023-03-01T10:04:35;21.20;51.20
3017;DHT22;1518;52.408;13.060;2023-03-01T10:07:32;21.30;51.30
3017;DHT22;1518;52.408;13.060;2023-03-01T10:10:28;21.40;51.30
3017;DHT22;1518;52.408;13.060;2023-03-01T10:13:21;21.40;51.20
3017;DHT22;1518;52.408;13.060;2023-03-01T10:16:13;21.40;51.10
3017;DHT22;1518;52.408;13.060;2023-03-01T10:19:04;21.50;51.60
3017;DHT22;1518;52.408;13.060;2023-03-01T10:21:57;21.40;50.70
3017;DHT22;1518;52.408;13.060;2023-03-01T10:24:48;21.40;50.70
3017;DHT22;1518;52.408;13.060;2023-03-01T10:27:46;21.40;50.70
3017;DHT22;1518;52.408;13.060;2023-03-01T10:30:39;21.50;50.80
3017;DHT22;1518;52.408;13.060;2023-03-01T10:33:31;21.50;50.90
3017;DHT22;1518;52.408;13.060;2023-03-01T10:36:20;21.50;51.00
3017;DHT22;1518;52.408;13.060;2023-03-01T10:39:16;21.50;51.00
3017;DHT22;1518;52.408;13.060;2023-03-01T10:42:13;21.50;50.80
3017;DHT22;1518;52.408;13.060;2023-03-01T10:45:23;21.50;50.90
3017;DHT22;1518;52.408;13.060;2023-03-01T10:48:16;21.50;50.90
3017;DHT22;1518;52.408;13.060;2023-03-01T10:51:07;21.50;51.00
3017;DHT22;1518;52.408;13.060;2023-03-01T10:53:55;21.50;50.80
3017;DHT22;1518;52.408;13.060;2023-03-01T10:56:49;21.30;50.70
3017;DHT22;1518;52.408;13.060;2023-03-01T10:59:39;21.40;50.90
3017;DHT22;1518;52.408;13.060;2023-03-01T11:02:29;21.60;51.10
3017;DHT22;1518;52.408;13.060;2023-03-01T11:05:23;21.60;51.00
3017;DHT22;1518;52.408;13.060;2023-03-01T11:08:11;21.60;51.00
3017;DHT22;1518;52.408;13.060;2023-03-01T11:11:15;21.60;50.90
3017;DHT22;1518;52.408;13.060;2023-03-01T11:14:07;21.70;51.10
3017;DHT22;1518;52.408;13.060;2023-03-01T11:17:15;21.70;51.20
3017;DHT22;1518;52.408;13.060;2023-03-01T11:20:24;21.60;68.20
3017;DHT22;1518;52.408;13.060;2023-03-01T11:23:15;21.70;51.30
3017;DHT22;1518;52.408;13.060;2023-03-01T11:26:07;21.80;51.30
3017;DHT22;1518;52.408;13.060;2023-03-01T11:29:02;22.00;51.50
3017;DHT22;1518;52.408;13.060;2023-03-01T11:31:53;21.80;51.50
3017;DHT22;1518;52.408;13.060;2023-03-01T11:34:48;21.80;51.40
3017;DHT22;1518;52.408;13.060;2023-03-01T11:37:43;21.80;51.30
3017;DHT22;1518;52.408;13.060;2023-03-01T11:40:35;21.90;51.40
3017;DHT22;1518;52.408;13.060;2023-03-01T11:43:33;21.70;51.30
3017;DHT22;1518;52.408;13.060;2023-03-01T11:46:54;21.70;51.20
3017;DHT22;1518;52.408;13.060;2023-03-01T11:53:24;21.70;51.40
3017;DHT22;1518;52.408;13.060;2023-03-01T11:56:23;21.60;51.30
3017;DHT22;1518;52.408;13.060;2023-03-01T12:02:47;21.70;51.00
3017;DHT22;1518;52.408;13.060;2023-03-01T12:09:27;21.60;51.10
3017;DHT22;1518;52.408;13.060;2023-03-01T12:12:29;21.60;51.10
3017;DHT22;1518;52.408;13.060;2023-03-01T12:15:40;21.60;51.10
3017;DHT22;1518;52.408;13.060;2023-03-01T12:19:01;21.60;51.30
3017;DHT22;1518;52.408;13.060;2023-03-01T12:22:03;21.60;51.20
3017;DHT22;1518;52.408;13.060;2023-03-01T12:25:06;21.60;51.40
3017;DHT22;1518;52.408;13.060;2023-03-01T12:28:17;21.60;51.20
3017;DHT22;1518;52.408;13.060;2023-03-01T12:31:31;21.60;51.30
3017;DHT22;1518;52.408;13.060;2023-03-01T12:34:47;21.70;51.40
3017;DHT22;1518;52.408;13.060;2023-03-01T12:37:47;21.80;51.30
3017;DHT22;1518;52.408;13.060;2023-03-01T12:40:51;21.90;51.30
3017;DHT22;1518;52.408;13.060;2023-03-01T12:43:51;21.90;51.20
3017;DHT22;1518;52.408;13.060;2023-03-01T12:46:52;22.00;51.30
3017;DHT22;1518;52.408;13.060;2023-03-01T12:49:57;22.00;51.20
3017;DHT22;1518;52.408;13.060;2023-03-01T12:52:50;22.00;51.10
3017;DHT22;1518;52.408;13.060;2023-03-01T12:55:41;22.10;51.10
3017;DHT22;1518;52.408;13.060;2023-03-01T12:58:32;22.10;51.10
3017;DHT22;1518;52.408;13.060;2023-03-01T13:01:41;22.10;51.00
3017;DHT22;1518;52.408;13.060;2023-03-01T13:04:40;22.10;51.00
3017;DHT22;1518;52.408;13.060;2023-03-01T13:07:37;22.10;51.00
3017;DHT22;1518;52.408;13.060;2023-03-01T13:10:33;22.10;50.90
3017;DHT22;1518;52.408;13.060;2023-03-01T13:13:23;22.00;51.50
3017;DHT22;1518;52.408;13.060;2023-03-01T13:16:22;22.00;50.80
3017;DHT22;1518;52.408;13.060;2023-03-01T13:19:27;21.90;50.70
3017;DHT22;1518;52.408;13.060;2023-03-01T13:22:29;21.90;50.70
3017;DHT22;1518;52.408;13.060;2023-03-01T13:25:20;21.90;50.80
3017;DHT22;1518;52.408;13.060;2023-03-01T13:28:36;21.90;50.90
3017;DHT22;1518;52.408;13.060;2023-03-01T13:31:58;21.80;50.90
3017;DHT22;1518;52.408;13.060;2023-03-01T13:34:58;21.90;51.00
3017;DHT22;1518;52.408;13.060;2023-03-01T13:37:47;21.90;51.00
3017;DHT22;1518;52.408;13.060;2023-03-01T13:40:59;21.80;50.80
3017;DHT22;1518;52.408;13.060;2023-03-01T13:43:48;21.80;50.70
3017;DHT22;1518;52.408;13.060;2023-03-01T13:46:36;21.80;50.80
3017;DHT22;1518;52.408;13.060;2023-03-01T13:49:27;21.80;50.80
3017;DHT22;1518;52.408;13.060;2023-03-01T13:52:39;21.80;50.80
3017;DHT22;1518;52.408;13.060;2023-03-01T13:55:36;21.80;50.80
3017;DHT22;1518;52.408;13.060;2023-03-01T13:58:28;21.80;50.70
3017;DHT22;1518;52.408;13.060;2023-03-01T14:01:23;21.90;50.80
3017;DHT22;1518;52.408;13.060;2023-03-01T14:04:20;21.90;50.80
3017;DHT22;1518;52.408;13.060;2023-03-01T14:07:11;21.90;50.80
3017;DHT22;1518;52.408;13.060;2023-03-01T14:10:02;21.80;67.10
3017;DHT22;1518;52.408;13.060;2023-03-01T14:12:53;21.90;50.70
3017;DHT22;1518;52.408;13.060;2023-03-01T14:16:01;22.00;50.70
3017;DHT22;1518;52.408;13.060;2023-03-01T14:18:57;22.00;50.60
3017;DHT22;1518;52.408;13.060;2023-03-01T14:21:58;22.10;50.10
3017;DHT22;1518;52.408;13.060;2023-03-01T14:24:51;22.10;50.50
3017;DHT22;1518;52.408;13.060;2023-03-01T14:27:40;22.20;50.60
3017;DHT22;1518;52.408;13.060;2023-03-01T14:30:33;22.10;50.50
3017;DHT22;1518;52.408;13.060;2023-03-01T14:33:25;22.20;50.40
3017;DHT22;1518;52.408;13.060;2023-03-01T14:36:14;22.20;50.30
3017;DHT22;1518;52.408;13.060;2023-03-01T14:39:16;22.20;50.10
3017;DHT22;1518;52.408;13.060;2023-03-01T14:42:05;22.20;50.10
3017;DHT22;1518;52.408;13.060;2023-03-01T14:45:03;22.30;50.10
3017;DHT22;1518;52.408;13.060;2023-03-01T14:47:52;22.30;50.20
3017;DHT22;1518;52.408;13.060;2023-03-01T14:50:43;22.30;50.10
3017;DHT22;1518;52.408;13.060;2023-03-01T14:53:32;22.30;50.20
3017;DHT22;1518;52.408;13.060;2023-03-01T14:56:44;21.30;49.30
3017;DHT22;1518;52.408;13.060;2023-03-01T14:59:33;22.30;50.20
3017;DHT22;1518;52.408;13.060;2023-03-01T15:02:24;22.20;50.00
3017;DHT22;1518;52.408;13.060;2023-03-01T15:05:14;22.30;50.00
3017;DHT22;1518;52.408;13.060;2023-03-01T15:08:05;22.30;50.10
3017;DHT22;1518;52.408;13.060;2023-03-01T15:10:58;22.30;50.10
3017;DHT22;1518;52.408;13.060;2023-03-01T15:13:47;22.30;50.10
3017;DHT22;1518;52.408;13.060;2023-03-01T15:16:39;22.30;50.00
3017;DHT22;1518;52.408;13.060;2023-03-01T15:19:28;22.30;50.10
3017;DHT22;1518;52.408;13.060;2023-03-01T15:22:16;22.30;50.00
3017;DHT22;1518;52.408;13.060;2023-03-01T15:25:14;22.40;50.10
3017;DHT22;1518;52.408;13.060;2023-03-01T15:28:03;22.30;50.00
3017;DHT22;1518;52.408;13.060;2023-03-01T15:30:57;22.30;50.20
3017;DHT22;1518;52.408;13.060;2023-03-01T15:33:46;22.30;50.00
3017;DHT22;1518;52.408;13.060;2023-03-01T15:36:41;22.40;50.10
3017;DHT22;1518;52.408;13.060;2023-03-01T15:39:36;22.30;49.80
3017;DHT22;1518;52.408;13.060;2023-03-01T15:42:37;22.30;49.80
3017;DHT22;1518;52.408;13.060;2023-03-01T15:45:28;22.20;49.80
3017;DHT22;1518;52.408;13.060;2023-03-01T15:48:18;22.20;49.90
3017;DHT22;1518;52.408;13.060;2023-03-01T15:51:11;22.20;49.90
3017;DHT22;1518;52.408;13.060;2023-03-01T15:54:04;22.10;49.80
3017;DHT22;1518;52.408;13.060;2023-03-01T15:56:53;22.10;49.90
3017;DHT22;1518;52.408;13.060;2023-03-01T15:59:43;22.10;49.90
3017;DHT22;1518;52.408;13.060;2023-03-01T16:02:31;22.20;50.00
3017;DHT22;1518;52.408;13.060;2023-03-01T16:05:23;22.10;50.00
3017;DHT22;1518;52.408;13.060;2023-03-01T16:08:11;22.10;49.90
3017;DHT22;1518;52.408;13.060;2023-03-01T16:10:59;22.10;49.80
3017;DHT22;1518;52.408;13.060;2023-03-01T16:13:50;22.20;49.80
3017;DHT22;1518;52.408;13.060;2023-03-01T16:16:40;22.20;49.80
3017;DHT22;1518;52.408;13.060;2023-03-01T16:19:28;22.20;49.80
3017;DHT22;1518;52.408;13.060;2023-03-01T16:22:16;22.20;49.70
3017;DHT22;1518;52.408;13.060;2023-03-01T16:25:04;22.30;49.70
3017;DHT22;1518;52.408;13.060;2023-03-01T16:27:55;22.30;49.70
3017;DHT22;1518;52.408;13.060;2023-03-01T16:30:46;22.20;49.60
3017;DHT22;1518;52.408;13.060;2023-03-01T16:33:37;22.30;49.60
3017;DHT22;1518;52.408;13.060;2023-03-01T16:36:26;22.30;49.70
3017;DHT22;1518;52.408;13.060;2023-03-01T16:39:14;22.50;49.90
3017;DHT22;1518;52.408;13.060;2023-03-01T16:42:03;22.20;49.70
3017;DHT22;1518;52.408;13.060;2023-03-01T16:44:54;22.20;49.70
3017;DHT22;1518;52.408;13.060;2023-03-01T16:47:42;22.20;49.60
3017;DHT22;1518;52.408;13.060;2023-03-01T16:50:32;22.20;49.60
3017;DHT22;1518;52.408;13.060;2023-03-01T16:53:20;22.10;49.50
3017;DHT22;1518;52.408;13.060;2023-03-01T16:56:10;22.30;49.60
3017;DHT22;1518;52.408;13.060;2023-03-01T16:58:58;22.10;49.60
3017;DHT22;1518;52.408;13.060;2023-03-01T17:01:51;22.10;49.60
3017;DHT22;1518;52.408;13.060;2023-03-01T17:04:39;22.10;49.60
3017;DHT22;1518;52.408;13.060;2023-03-01T17:07:29;22.00;49.60
3017;DHT22;1518;52.408;13.060;2023-03-01T17:10:20;21.80;66.70
3017;DHT22;1518;52.408;13.060;2023-03-01T17:13:08;22.10;49.70
3017;DHT22;1518;52.408;13.060;2023-03-01T17:15:57;22.00;49.60
3017;DHT22;1518;52.408;13.060;2023-03-01T17:18:45;22.10;49.70
3017;DHT22;1518;52.408;13.060;2023-03-01T17:21:33;21.90;49.40
3017;DHT22;1518;52.408;13.060;2023-03-01T17:24:23;22.10;49.70
3017;DHT22;1518;52.408;13.060;2023-03-01T17:27:12;22.10;49.60
3017;DHT22;1518;52.408;13.060;2023-03-01T17:30:00;22.10;49.60
3017;DHT22;1518;52.408;13.060;2023-03-01T17:32:48;22.20;49.70
3017;DHT22;1518;52.408;13.060;2023-03-01T17:35:39;22.40;49.90
3017;DHT22;1518;52.408;13.060;2023-03-01T17:38:27;22.10;49.60
3017;DHT22;1518;52.408;13.060;2023-03-01T17:41:16;22.10;49.60
3017;DHT22;1518;52.408;13.060;2023-03-01T17:44:05;22.10;49.50
3017;DHT22;1518;52.408;13.060;2023-03-01T17:46:53;22.20;49.60
3017;DHT22;1518;52.408;13.060;2023-03-01T17:49:41;22.10;49.60
3017;DHT22;1518;52.408;13.060;2023-03-01T17:52:29;22.00;49.40
3017;DHT22;1518;52.408;13.060;2023-03-01T17:55:17;22.00;49.60
3017;DHT22;1518;52.408;13.060;2023-03-01T17:58:08;21.90;49.50
3017;DHT22;1518;52.408;13.060;2023-03-01T18:01:06;21.80;49.50
3017;DHT22;1518;52.408;13.060;2023-03-01T18:03:54;21.80;49.60
3017;DHT22;1518;52.408;13.060;2023-03-01T18:06:42;21.80;49.60
3017;DHT22;1518;52.408;13.060;2023-03-01T18:09:31;21.80;49.60
3017;DHT22;1518;52.408;13.060;2023-03-01T18:12:19;21.80;49.60
3017;DHT22;1518;52.408;13.060;2023-03-01T18:15:09;21.80;49.60
3017;DHT22;1518;52.408;13.060;2023-03-01T18:17:57;21.90;50.30
3017;DHT22;1518;52.408;13.060;2023-03-01T18:20:54;21.90;49.70
3017;DHT22;1518;52.408;13.060;2023-03-01T18:23:42;21.90;49.60
3017;DHT22;1518;52.408;13.060;2023-03-01T18:26:30;21.90;49.70
3017;DHT22;1518;52.408;13.060;2023-03-01T18:29:19;22.00;49.70
3017;DHT22;1518;52.408;13.060;2023-03-01T18:32:09;22.00;49.60